sensor_id;sensor_type;location;lat;lon;timestamp;pressure;altitude;pressure_sealevel;temperature;humidity
23321;BME280;33376;51.306;4.752;2022-08-19T00:02:01;99615.78;;;16.51;nan
23321;BME280;33376;51.306;4.752;2022-08-19T00:04:29;99612.41;;;16.49;nan
23321;BME280;33376;51.306;4.752;2022-08-19T00:06:55;99620.28;;;16.51;nan
23321;BME280;33376;51.306;4.752;2022-08-19T00:09:20;99610.59;;;16.50;nan
23321;BME280;33376;51.306;4.752;2022-08-19T00:11:46;99610.75;;;16.48;nan
23321;BME280;33376;51.306;4.752;2022-08-19T00:14:12;99609.88;;;16.48;nan
23321;BME280;33376;51.306;4.752;2022-08-19T00:16:38;99612.13;;;16.43;nan
23321;BME280;33376;51.306;4.752;2022-08-19T00:19:05;99614.09;;;16.41;nan
23321;BME280;33376;51.306;4.752;2022-08-19T00:21:30;99614.97;;;16.41;nan
23321;BME280;33376;51.306;4.752;2022-08-19T00:23:56;99619.31;;;16.42;nan
23321;BME280;33376;51.306;4.752;2022-08-19T00:26:25;99619.88;;;16.46;nan
23321;BME280;33376;51.306;4.752;2022-08-19T00:28:51;99621.56;;;16.47;nan
23321;BME280;33376;51.306;4.752;2022-08-19T00:31:16;99629.34;;;16.40;nan
23321;BME280;33376;51.306;4.752;2022-08-19T00:33:42;99626.94;;;16.37;nan
23321;BME280;33376;51.306;4.752;2022-08-19T00:36:08;99631.47;;;16.37;nan
23321;BME280;33376;51.306;4.752;2022-08-19T00:38:34;99627.06;;;16.45;nan
23321;BME280;33376;51.306;4.752;2022-08-19T00:41:00;99632.69;;;16.42;nan
23321;BME280;33376;51.306;4.752;2022-08-19T00:43:26;99635.22;;;16.44;nan
23321;BME280;33376;51.306;4.752;2022-08-19T00:45:51;99642.84;;;16.39;nan
23321;BME280;33376;51.306;4.752;2022-08-19T00:48:17;99652.63;;;16.30;nan
23321;BME280;33376;51.306;4.752;2022-08-19T00:50:43;99653.31;;;16.32;nan
23321;BME280;33376;51.306;4.752;2022-08-19T00:53:10;99644.44;;;16.32;nan
23321;BME280;33376;51.306;4.752;2022-08-19T00:55:35;99655.84;;;16.34;nan
23321;BME280;33376;51.306;4.752;2022-08-19T00:58:03;99653.59;;;16.29;nan
23321;BME280;33376;51.306;4.752;2022-08-19T01:00:31;99645.19;;;16.24;nan
23321;BME280;33376;51.306;4.752;2022-08-19T01:02:57;99651.53;;;16.23;nan
23321;BME280;33376;51.306;4.752;2022-08-19T01:05:24;99650.59;;;16.15;nan
23321;BME280;33376;51.306;4.752;2022-08-19T01:07:52;99648.59;;;16.17;nan
23321;BME280;33376;51.306;4.752;2022-08-19T01:10:19;99651.72;;;16.12;nan
23321;BME280;33376;51.306;4.752;2022-08-19T01:12:48;99661.84;;;16.08;nan
23321;BME280;33376;51.306;4.752;2022-08-19T01:15:14;99671.72;;;16.08;nan
23321;BME280;33376;51.306;4.752;2022-08-19T01:17:41;99670.72;;;16.09;nan
23321;BME280;33376;51.306;4.752;2022-08-19T01:20:11;99677.09;;;16.08;nan
23321;BME280;33376;51.306;4.752;2022-08-19T01:22:40;99670.88;;;16.07;nan
23321;BME280;33376;51.306;4.752;2022-08-19T01:25:07;99676.69;;;16.03;nan
23321;BME280;33376;51.306;4.752;2022-08-19T01:27:41;99659.94;;;16.01;nan
23321;BME280;33376;51.306;4.752;2022-08-19T01:30:07;99666.72;;;15.95;nan
23321;BME280;33376;51.306;4.752;2022-08-19T01:32:33;99668.53;;;15.95;nan
23321;BME280;33376;51.306;4.752;2022-08-19T01:34:59;99669.63;;;16.02;nan
23321;BME280;33376;51.306;4.752;2022-08-19T01:37:26;99673.59;;;15.98;nan
23321;BME280;33376;51.306;4.752;2022-08-19T01:39:51;99680.66;;;15.89;nan
23321;BME280;33376;51.306;4.752;2022-08-19T01:42:16;99684.72;;;15.93;nan
23321;BME280;33376;51.306;4.752;2022-08-19T01:44:42;99692.03;;;15.91;nan
23321;BME280;33376;51.306;4.752;2022-08-19T01:47:07;99687.53;;;15.92;nan
23321;BME280;33376;51.306;4.752;2022-08-19T01:49:34;99687.13;;;15.87;nan
23321;BME280;33376;51.306;4.752;2022-08-19T01:51:59;99685.47;;;15.86;nan
23321;BME280;33376;51.306;4.752;2022-08-19T01:54:25;99683.19;;;15.81;nan
23321;BME280;33376;51.306;4.752;2022-08-19T01:56:52;99679.00;;;15.79;nan
23321;BME280;33376;51.306;4.752;2022-08-19T01:59:20;99685.59;;;15.75;nan
23321;BME280;33376;51.306;4.752;2022-08-19T02:01:48;99674.34;;;15.81;nan
23321;BME280;33376;51.306;4.752;2022-08-19T02:04:13;99681.13;;;15.75;nan
23321;BME280;33376;51.306;4.752;2022-08-19T02:06:39;99697.28;;;15.74;nan
23321;BME280;33376;51.306;4.752;2022-08-19T02:09:05;99711.22;;;15.77;nan
23321;BME280;33376;51.306;4.752;2022-08-19T02:11:32;99711.66;;;15.73;nan
23321;BME280;33376;51.306;4.752;2022-08-19T02:13:58;99716.28;;;15.71;nan
23321;BME280;33376;51.306;4.752;2022-08-19T02:16:24;99723.16;;;15.73;nan
23321;BME280;33376;51.306;4.752;2022-08-19T02:18:49;99729.94;;;15.68;nan
23321;BME280;33376;51.306;4.752;2022-08-19T02:21:16;99730.91;;;15.67;nan
23321;BME280;33376;51.306;4.752;2022-08-19T02:23:42;99732.91;;;15.65;nan
23321;BME280;33376;51.306;4.752;2022-08-19T02:26:08;99730.22;;;15.65;nan
23321;BME280;33376;51.306;4.752;2022-08-19T02:28:33;99729.66;;;15.61;nan
23321;BME280;33376;51.306;4.752;2022-08-19T02:30:59;99720.94;;;15.59;nan
23321;BME280;33376;51.306;4.752;2022-08-19T02:33:25;99722.66;;;15.60;nan
23321;BME280;33376;51.306;4.752;2022-08-19T02:35:50;99715.44;;;15.61;nan
23321;BME280;33376;51.306;4.752;2022-08-19T02:38:16;99715.59;;;15.59;nan
23321;BME280;33376;51.306;4.752;2022-08-19T02:40:51;99717.72;;;15.56;nan
23321;BME280;33376;51.306;4.752;2022-08-19T02:43:19;99708.88;;;15.55;nan
23321;BME280;33376;51.306;4.752;2022-08-19T02:45:45;99696.47;;;15.64;nan
23321;BME280;33376;51.306;4.752;2022-08-19T02:48:10;99697.47;;;15.63;nan
23321;BME280;33376;51.306;4.752;2022-08-19T02:50:39;99721.50;;;15.63;nan
23321;BME280;33376;51.306;4.752;2022-08-19T02:53:04;99732.47;;;15.60;nan
23321;BME280;33376;51.306;4.752;2022-08-19T02:55:31;99716.28;;;15.71;nan
23321;BME280;33376;51.306;4.752;2022-08-19T02:57:56;99714.75;;;15.68;nan
23321;BME280;33376;51.306;4.752;2022-08-19T03:00:22;99700.41;;;15.69;nan
23321;BME280;33376;51.306;4.752;2022-08-19T03:02:49;99693.50;;;15.67;nan
23321;BME280;33376;51.306;4.752;2022-08-19T03:05:14;99683.81;;;15.66;nan
23321;BME280;33376;51.306;4.752;2022-08-19T03:07:40;99676.38;;;15.60;nan
23321;BME280;33376;51.306;4.752;2022-08-19T03:10:05;99688.16;;;15.57;nan
23321;BME280;33376;51.306;4.752;2022-08-19T03:12:30;99680.88;;;15.59;nan
23321;BME280;33376;51.306;4.752;2022-08-19T03:14:56;99675.81;;;15.56;nan
23321;BME280;33376;51.306;4.752;2022-08-19T03:17:21;99680.59;;;15.53;nan
23321;BME280;33376;51.306;4.752;2022-08-19T03:19:46;99679.63;;;15.54;nan
23321;BME280;33376;51.306;4.752;2022-08-19T03:22:12;99677.63;;;15.56;nan
23321;BME280;33376;51.306;4.752;2022-08-19T03:24:37;99673.16;;;15.47;nan
23321;BME280;33376;51.306;4.752;2022-08-19T03:27:03;99673.88;;;15.49;nan
23321;BME280;33376;51.306;4.752;2022-08-19T03:29:30;99684.84;;;15.46;nan
23321;BME280;33376;51.306;4.752;2022-08-19T03:31:57;99689.47;;;15.53;nan
23321;BME280;33376;51.306;4.752;2022-08-19T03:34:24;99679.50;;;15.46;nan
23321;BME280;33376;51.306;4.752;2022-08-19T03:36:51;99672.72;;;15.51;nan
23321;BME280;33376;51.306;4.752;2022-08-19T03:39:17;99664.16;;;15.48;nan
23321;BME280;33376;51.306;4.752;2022-08-19T03:41:44;99664.16;;;15.48;nan
23321;BME280;33376;51.306;4.752;2022-08-19T03:44:09;99648.81;;;15.50;nan
23321;BME280;33376;51.306;4.752;2022-08-19T03:46:34;99643.78;;;15.47;nan
23321;BME280;33376;51.306;4.752;2022-08-19T03:49:02;99635.91;;;15.45;nan
23321;BME280;33376;51.306;4.752;2022-08-19T03:51:34;99643.50;;;15.40;nan
23321;BME280;33376;51.306;4.752;2022-08-19T03:54:00;99640.97;;;15.39;nan
23321;BME280;33376;51.306;4.752;2022-08-19T03:56:27;99635.34;;;15.42;nan
23321;BME280;33376;51.306;4.752;2022-08-19T03:58:58;99645.75;;;15.45;nan
23321;BME280;33376;51.306;4.752;2022-08-19T04:01:25;99644.75;;;15.36;nan
23321;BME280;33376;51.306;4.752;2022-08-19T04:03:54;99634.91;;;15.37;nan
23321;BME280;33376;51.306;4.752;2022-08-19T04:06:21;99639.13;;;15.30;nan
23321;BME280;33376;51.306;4.752;2022-08-19T04:08:48;99636.06;;;15.25;nan
23321;BME280;33376;51.306;4.752;2022-08-19T04:11:14;99644.78;;;15.17;nan
23321;BME280;33376;51.306;4.752;2022-08-19T04:13:39;99646.44;;;15.18;nan
23321;BME280;33376;51.306;4.752;2022-08-19T04:16:05;99646.75;;;15.15;nan
23321;BME280;33376;51.306;4.752;2022-08-19T04:18:31;99644.22;;;15.14;nan
23321;BME280;33376;51.306;4.752;2022-08-19T04:20:57;99639.16;;;15.11;nan
23321;BME280;33376;51.306;4.752;2022-08-19T04:23:23;99635.78;;;15.09;nan
23321;BME280;33376;51.306;4.752;2022-08-19T04:25:48;99638.59;;;15.07;nan
23321;BME280;33376;51.306;4.752;2022-08-19T04:28:14;99641.13;;;14.99;nan
23321;BME280;33376;51.306;4.752;2022-08-19T04:30:46;99661.75;;;14.97;nan
23321;BME280;33376;51.306;4.752;2022-08-19T04:33:16;99658.53;;;14.94;nan
23321;BME280;33376;51.306;4.752;2022-08-19T04:35:43;99661.19;;;14.94;nan
23321;BME280;33376;51.306;4.752;2022-08-19T04:38:09;99664.44;;;14.88;nan
23321;BME280;33376;51.306;4.752;2022-08-19T04:40:39;99664.28;;;14.89;nan
23321;BME280;33376;51.306;4.752;2022-08-19T04:43:23;99667.53;;;14.93;nan
23321;BME280;33376;51.306;4.752;2022-08-19T04:45:48;99676.25;;;14.95;nan
23321;BME280;33376;51.306;4.752;2022-08-19T04:48:13;99677.22;;;14.94;nan
23321;BME280;33376;51.306;4.752;2022-08-19T04:50:39;99675.81;;;14.99;nan
23321;BME280;33376;51.306;4.752;2022-08-19T04:53:05;99671.34;;;15.00;nan
23321;BME280;33376;51.306;4.752;2022-08-19T04:55:30;99671.06;;;15.03;nan
23321;BME280;33376;51.306;4.752;2022-08-19T04:57:56;99671.34;;;15.00;nan
23321;BME280;33376;51.306;4.752;2022-08-19T05:00:21;99674.69;;;15.02;nan
23321;BME280;33376;51.306;4.752;2022-08-19T05:02:46;99682.25;;;14.97;nan
23321;BME280;33376;51.306;4.752;2022-08-19T05:05:11;99670.19;;;14.93;nan
23321;BME280;33376;51.306;4.752;2022-08-19T05:07:37;99667.53;;;14.93;nan
23321;BME280;33376;51.306;4.752;2022-08-19T05:10:04;99669.06;;;14.95;nan
23321;BME280;33376;51.306;4.752;2022-08-19T05:12:29;99663.59;;;14.97;nan
23321;BME280;33376;51.306;4.752;2022-08-19T05:14:56;99671.88;;;15.03;nan
23321;BME280;33376;51.306;4.752;2022-08-19T05:17:21;99666.00;;;15.09;nan
23321;BME280;33376;51.306;4.752;2022-08-19T05:19:47;99661.75;;;15.26;nan
23321;BME280;33376;51.306;4.752;2022-08-19T05:22:31;99649.09;;;15.56;nan
23321;BME280;33376;51.306;4.752;2022-08-19T05:25:06;99659.81;;;15.93;nan
23321;BME280;33376;51.306;4.752;2022-08-19T05:27:31;99672.41;;;16.10;nan
23321;BME280;33376;51.306;4.752;2022-08-19T05:29:57;99687.19;;;16.41;nan
23321;BME280;33376;51.306;4.752;2022-08-19T05:32:22;99694.53;;;16.66;nan
23321;BME280;33376;51.306;4.752;2022-08-19T05:34:48;99717.47;;;16.51;nan
23321;BME280;33376;51.306;4.752;2022-08-19T05:37:14;99734.00;;;16.64;nan
23321;BME280;33376;51.306;4.752;2022-08-19T05:39:39;99748.69;;;16.60;nan
23321;BME280;33376;51.306;4.752;2022-08-19T05:42:06;99772.66;;;16.43;nan
23321;BME280;33376;51.306;4.752;2022-08-19T05:44:33;99799.41;;;16.43;nan
23321;BME280;33376;51.306;4.752;2022-08-19T05:47:02;99817.59;;;16.49;nan
23321;BME280;33376;51.306;4.752;2022-08-19T05:49:28;99835.31;;;16.59;nan
23321;BME280;33376;51.306;4.752;2022-08-19T05:51:53;99842.88;;;16.73;nan
23321;BME280;33376;51.306;4.752;2022-08-19T05:54:20;99864.56;;;16.70;nan
23321;BME280;33376;51.306;4.752;2022-08-19T05:56:46;99874.41;;;16.79;nan
23321;BME280;33376;51.306;4.752;2022-08-19T05:59:12;99888.19;;;16.84;nan
23321;BME280;33376;51.306;4.752;2022-08-19T06:01:39;99898.16;;;16.92;nan
23321;BME280;33376;51.306;4.752;2022-08-19T06:04:05;99905.56;;;17.07;nan
23321;BME280;33376;51.306;4.752;2022-08-19T06:06:31;99919.16;;;17.23;nan
23321;BME280;33376;51.306;4.752;2022-08-19T06:08:59;99932.16;;;17.28;nan
23321;BME280;33376;51.306;4.752;2022-08-19T06:11:38;99931.63;;;17.42;nan
23321;BME280;33376;51.306;4.752;2022-08-19T06:14:08;99942.78;;;17.47;nan
23321;BME280;33376;51.306;4.752;2022-08-19T06:16:37;99951.06;;;17.53;nan
23321;BME280;33376;51.306;4.752;2022-08-19T06:19:04;99957.59;;;17.69;nan
23321;BME280;33376;51.306;4.752;2022-08-19T06:21:31;99962.50;;;17.73;nan
23321;BME280;33376;51.306;4.752;2022-08-19T06:23:57;99978.63;;;17.91;nan
23321;BME280;33376;51.306;4.752;2022-08-19T06:26:23;99985.81;;;18.00;nan
23321;BME280;33376;51.306;4.752;2022-08-19T06:28:52;99980.06;;;18.30;nan
23321;BME280;33376;51.306;4.752;2022-08-19T06:31:28;99989.66;;;18.50;nan
23321;BME280;33376;51.306;4.752;2022-08-19T06:33:54;99993.41;;;18.74;nan
23321;BME280;33376;51.306;4.752;2022-08-19T06:36:21;100015.91;;;18.99;nan
23321;BME280;33376;51.306;4.752;2022-08-19T06:38:46;100037.25;;;19.26;nan
23321;BME280;33376;51.306;4.752;2022-08-19T06:41:11;100070.53;;;19.51;nan
23321;BME280;33376;51.306;4.752;2022-08-19T06:43:36;100089.16;;;19.44;nan
23321;BME280;33376;51.306;4.752;2022-08-19T06:46:02;100105.91;;;19.38;nan
23321;BME280;33376;51.306;4.752;2022-08-19T06:48:28;100118.50;;;19.38;nan
23321;BME280;33376;51.306;4.752;2022-08-19T06:50:54;100120.19;;;19.21;nan
23321;BME280;33376;51.306;4.752;2022-08-19T06:53:19;100115.81;;;19.20;nan
23321;BME280;33376;51.306;4.752;2022-08-19T06:55:45;100097.31;;;19.17;nan
23321;BME280;33376;51.306;4.752;2022-08-19T06:58:10;100090.38;;;19.07;nan
23321;BME280;33376;51.306;4.752;2022-08-19T07:00:35;100077.59;;;19.09;nan
23321;BME280;33376;51.306;4.752;2022-08-19T07:03:01;100064.16;;;19.09;nan
23321;BME280;33376;51.306;4.752;2022-08-19T07:05:27;100065.06;;;19.35;nan
23321;BME280;33376;51.306;4.752;2022-08-19T07:07:52;100055.41;;;19.24;nan
23321;BME280;33376;51.306;4.752;2022-08-19T07:10:17;100046.31;;;19.25;nan
23321;BME280;33376;51.306;4.752;2022-08-19T07:12:43;100045.41;;;19.17;nan
23321;BME280;33376;51.306;4.752;2022-08-19T07:15:09;100041.09;;;19.24;nan
23321;BME280;33376;51.306;4.752;2022-08-19T07:17:34;100034.97;;;19.14;nan
23321;BME280;33376;51.306;4.752;2022-08-19T07:20:02;100035.34;;;19.19;nan
23321;BME280;33376;51.306;4.752;2022-08-19T07:22:28;100038.81;;;19.29;nan
23321;BME280;33376;51.306;4.752;2022-08-19T07:24:53;100036.66;;;19.32;nan
23321;BME280;33376;51.306;4.752;2022-08-19T07:27:18;100053.06;;;19.29;nan
23321;BME280;33376;51.306;4.752;2022-08-19T07:29:44;100056.63;;;19.30;nan
23321;BME280;33376;51.306;4.752;2022-08-19T07:32:09;100049.47;;;19.38;nan
23321;BME280;33376;51.306;4.752;2022-08-19T07:34:36;100043.72;;;19.67;nan
23321;BME280;33376;51.306;4.752;2022-08-19T07:37:03;100041.22;;;19.65;nan
23321;BME280;33376;51.306;4.752;2022-08-19T07:39:29;100048.69;;;19.54;nan
23321;BME280;33376;51.306;4.752;2022-08-19T07:41:56;100056.22;;;19.76;nan
23321;BME280;33376;51.306;4.752;2022-08-19T07:44:21;100055.56;;;19.82;nan
23321;BME280;33376;51.306;4.752;2022-08-19T07:46:49;100045.53;;;20.00;nan
23321;BME280;33376;51.306;4.752;2022-08-19T07:49:15;100053.97;;;20.05;nan
23321;BME280;33376;51.306;4.752;2022-08-19T07:51:52;100057.56;;;20.13;nan
23321;BME280;33376;51.306;4.752;2022-08-19T07:54:19;100075.81;;;19.94;nan
23321;BME280;33376;51.306;4.752;2022-08-19T07:56:44;100088.81;;;19.73;nan
23321;BME280;33376;51.306;4.752;2022-08-19T07:59:10;100090.38;;;19.83;nan
23321;BME280;33376;51.306;4.752;2022-08-19T08:01:36;100092.31;;;19.99;nan
23321;BME280;33376;51.306;4.752;2022-08-19T08:04:02;100088.91;;;19.89;nan
23321;BME280;33376;51.306;4.752;2022-08-19T08:06:45;100091.06;;;19.85;nan
23321;BME280;33376;51.306;4.752;2022-08-19T08:09:31;100094.19;;;20.06;nan
23321;BME280;33376;51.306;4.752;2022-08-19T08:12:08;100098.63;;;20.15;nan
23321;BME280;33376;51.306;4.752;2022-08-19T08:17:04;100121.09;;;20.40;nan
23321;BME280;33376;51.306;4.752;2022-08-19T08:19:29;100125.84;;;20.54;nan
23321;BME280;33376;51.306;4.752;2022-08-19T08:21:56;100141.50;;;20.59;nan
23321;BME280;33376;51.306;4.752;2022-08-19T08:24:22;100144.03;;;20.60;nan
23321;BME280;33376;51.306;4.752;2022-08-19T08:26:48;100173.78;;;20.43;nan
23321;BME280;33376;51.306;4.752;2022-08-19T08:29:13;100161.91;;;20.69;nan
23321;BME280;33376;51.306;4.752;2022-08-19T08:31:40;100162.28;;;20.90;nan
23321;BME280;33376;51.306;4.752;2022-08-19T08:34:06;100166.69;;;20.91;nan
23321;BME280;33376;51.306;4.752;2022-08-19T08:36:31;100169.59;;;20.98;nan
23321;BME280;33376;51.306;4.752;2022-08-19T08:38:58;100184.94;;;21.13;nan
23321;BME280;33376;51.306;4.752;2022-08-19T08:44:12;100205.66;;;21.29;nan
23321;BME280;33376;51.306;4.752;2022-08-19T08:46:44;100208.34;;;21.21;nan
23321;BME280;33376;51.306;4.752;2022-08-19T08:49:17;100215.78;;;21.11;nan
23321;BME280;33376;51.306;4.752;2022-08-19T08:51:50;100221.19;;;21.19;nan
23321;BME280;33376;51.306;4.752;2022-08-19T08:54:18;100219.31;;;21.19;nan
23321;BME280;33376;51.306;4.752;2022-08-19T08:56:45;100224.03;;;21.33;nan
23321;BME280;33376;51.306;4.752;2022-08-19T09:01:36;100231.31;;;21.49;nan
23321;BME280;33376;51.306;4.752;2022-08-19T09:04:04;100240.41;;;21.56;nan
23321;BME280;33376;51.306;4.752;2022-08-19T09:09:19;100248.50;;;21.56;nan
23321;BME280;33376;51.306;4.752;2022-08-19T09:17:02;100258.66;;;21.54;nan
23321;BME280;33376;51.306;4.752;2022-08-19T09:19:28;100279.22;;;21.63;nan
23321;BME280;33376;51.306;4.752;2022-08-19T09:21:54;100281.56;;;21.66;nan
23321;BME280;33376;51.306;4.752;2022-08-19T09:24:19;100290.63;;;21.33;nan
23321;BME280;33376;51.306;4.752;2022-08-19T09:26:44;100285.94;;;21.59;nan
23321;BME280;33376;51.306;4.752;2022-08-19T09:29:10;100293.22;;;21.66;nan
23321;BME280;33376;51.306;4.752;2022-08-19T09:31:36;100294.53;;;21.54;nan
23321;BME280;33376;51.306;4.752;2022-08-19T09:34:02;100313.22;;;21.40;nan
23321;BME280;33376;51.306;4.752;2022-08-19T09:36:29;100314.41;;;21.29;nan
23321;BME280;33376;51.306;4.752;2022-08-19T09:38:57;100315.72;;;21.25;nan
23321;BME280;33376;51.306;4.752;2022-08-19T09:41:23;100312.03;;;21.26;nan
23321;BME280;33376;51.306;4.752;2022-08-19T09:43:50;100307.97;;;21.30;nan
23321;BME280;33376;51.306;4.752;2022-08-19T09:46:20;100309.19;;;21.36;nan
23321;BME280;33376;51.306;4.752;2022-08-19T09:48:49;100297.22;;;21.46;nan
23321;BME280;33376;51.306;4.752;2022-08-19T09:51:18;100294.88;;;21.51;nan
23321;BME280;33376;51.306;4.752;2022-08-19T09:53:44;100299.41;;;21.51;nan
23321;BME280;33376;51.306;4.752;2022-08-19T09:56:10;100306.34;;;21.45;nan
23321;BME280;33376;51.306;4.752;2022-08-19T09:58:36;100295.53;;;21.45;nan
23321;BME280;33376;51.306;4.752;2022-08-19T10:01:02;100303.78;;;21.28;nan
23321;BME280;33376;51.306;4.752;2022-08-19T10:03:28;100301.44;;;21.33;nan
23321;BME280;33376;51.306;4.752;2022-08-19T10:05:55;100298.06;;;21.39;nan
23321;BME280;33376;51.306;4.752;2022-08-19T10:08:22;100295.22;;;21.48;nan
23321;BME280;33376;51.306;4.752;2022-08-19T10:10:48;100306.34;;;21.53;nan
23321;BME280;33376;51.306;4.752;2022-08-19T10:13:14;100299.75;;;21.48;nan
23321;BME280;33376;51.306;4.752;2022-08-19T10:15:40;100309.88;;;21.38;nan
23321;BME280;33376;51.306;4.752;2022-08-19T10:18:06;100302.44;;;21.40;nan
23321;BME280;33376;51.306;4.752;2022-08-19T10:20:31;100303.28;;;21.40;nan
23321;BME280;33376;51.306;4.752;2022-08-19T10:22:57;100290.50;;;21.42;nan
23321;BME280;33376;51.306;4.752;2022-08-19T10:25:24;100300.06;;;21.37;nan
23321;BME280;33376;51.306;4.752;2022-08-19T10:27:51;100293.88;;;21.44;nan
23321;BME280;33376;51.306;4.752;2022-08-19T10:30:16;100286.94;;;21.50;nan
23321;BME280;33376;51.306;4.752;2022-08-19T10:32:41;100286.44;;;21.62;nan
23321;BME280;33376;51.306;4.752;2022-08-19T10:35:07;100286.84;;;21.76;nan
23321;BME280;33376;51.306;4.752;2022-08-19T10:37:33;100282.75;;;21.71;nan
23321;BME280;33376;51.306;4.752;2022-08-19T10:39:59;100281.94;;;21.95;nan
23321;BME280;33376;51.306;4.752;2022-08-19T10:42:24;100295.09;;;22.06;nan
23321;BME280;33376;51.306;4.752;2022-08-19T10:44:49;100303.03;;;21.92;nan
23321;BME280;33376;51.306;4.752;2022-08-19T10:47:15;100291.88;;;22.03;nan
23321;BME280;33376;51.306;4.752;2022-08-19T10:49:40;100286.84;;;21.92;nan
23321;BME280;33376;51.306;4.752;2022-08-19T10:52:25;100295.09;;;21.98;nan
23321;BME280;33376;51.306;4.752;2022-08-19T10:55:04;100282.28;;;22.00;nan
23321;BME280;33376;51.306;4.752;2022-08-19T10:57:48;100291.03;;;22.02;nan
23321;BME280;33376;51.306;4.752;2022-08-19T11:00:14;100288.84;;;21.82;nan
23321;BME280;33376;51.306;4.752;2022-08-19T11:02:39;100287.69;;;21.76;nan
23321;BME280;33376;51.306;4.752;2022-08-19T11:05:05;100284.94;;;21.68;nan
23321;BME280;33376;51.306;4.752;2022-08-19T11:07:31;100290.00;;;21.71;nan
23321;BME280;33376;51.306;4.752;2022-08-19T11:09:57;100288.03;;;21.81;nan
23321;BME280;33376;51.306;4.752;2022-08-19T11:12:22;100288.66;;;22.07;nan
23321;BME280;33376;51.306;4.752;2022-08-19T11:14:47;100283.94;;;22.09;nan
23321;BME280;33376;51.306;4.752;2022-08-19T11:17:14;100283.44;;;22.14;nan
23321;BME280;33376;51.306;4.752;2022-08-19T11:19:40;100280.88;;;22.20;nan
23321;BME280;33376;51.306;4.752;2022-08-19T11:22:07;100276.47;;;22.43;nan
23321;BME280;33376;51.306;4.752;2022-08-19T11:24:34;100270.31;;;22.73;nan
23321;BME280;33376;51.306;4.752;2022-08-19T11:27:01;100279.44;;;23.03;nan
23321;BME280;33376;51.306;4.752;2022-08-19T11:29:27;100294.53;;;22.97;nan
23321;BME280;33376;51.306;4.752;2022-08-19T11:31:53;100297.13;;;23.22;nan
23321;BME280;33376;51.306;4.752;2022-08-19T11:34:20;100304.19;;;23.31;nan
23321;BME280;33376;51.306;4.752;2022-08-19T11:36:46;100301.31;;;23.55;nan
23321;BME280;33376;51.306;4.752;2022-08-19T11:39:13;100307.81;;;23.68;nan
23321;BME280;33376;51.306;4.752;2022-08-19T11:41:39;100338.00;;;23.57;nan
23321;BME280;33376;51.306;4.752;2022-08-19T11:44:04;100348.06;;;23.49;nan
23321;BME280;33376;51.306;4.752;2022-08-19T11:46:30;100350.34;;;23.60;nan
23321;BME280;33376;51.306;4.752;2022-08-19T11:48:59;100340.97;;;23.70;nan
23321;BME280;33376;51.306;4.752;2022-08-19T11:51:25;100343.06;;;23.83;nan
23321;BME280;33376;51.306;4.752;2022-08-19T11:53:51;100356.38;;;23.92;nan
23321;BME280;33376;51.306;4.752;2022-08-19T11:56:18;100360.81;;;24.30;nan
23321;BME280;33376;51.306;4.752;2022-08-19T11:58:44;100370.53;;;24.25;nan
23321;BME280;33376;51.306;4.752;2022-08-19T12:01:13;100388.09;;;24.29;nan
23321;BME280;33376;51.306;4.752;2022-08-19T12:03:45;100374.41;;;24.45;nan
23321;BME280;33376;51.306;4.752;2022-08-19T12:06:12;100349.06;;;24.38;nan
23321;BME280;33376;51.306;4.752;2022-08-19T12:08:38;100342.25;;;24.57;nan
23321;BME280;33376;51.306;4.752;2022-08-19T12:11:04;100356.97;;;24.77;nan
23321;BME280;33376;51.306;4.752;2022-08-19T12:13:30;100377.50;;;24.94;nan
23321;BME280;33376;51.306;4.752;2022-08-19T12:15:56;100394.75;;;24.64;nan
23321;BME280;33376;51.306;4.752;2022-08-19T12:18:22;100390.50;;;24.98;nan
23321;BME280;33376;51.306;4.752;2022-08-19T12:20:47;100411.16;;;25.28;nan
23321;BME280;33376;51.306;4.752;2022-08-19T12:23:12;100408.13;;;26.03;nan
23321;BME280;33376;51.306;4.752;2022-08-19T12:25:43;100415.69;;;26.28;nan
23321;BME280;33376;51.306;4.752;2022-08-19T12:28:19;100446.03;;;27.01;nan
23321;BME280;33376;51.306;4.752;2022-08-19T12:30:45;100565.19;;;26.64;nan
23321;BME280;33376;51.306;4.752;2022-08-19T12:33:11;100585.41;;;26.55;nan
23321;BME280;33376;51.306;4.752;2022-08-19T12:35:42;100599.34;;;26.31;nan
23321;BME280;33376;51.306;4.752;2022-08-19T12:38:08;100588.25;;;26.47;nan
23321;BME280;33376;51.306;4.752;2022-08-19T12:40:34;100607.22;;;25.82;nan
23321;BME280;33376;51.306;4.752;2022-08-19T12:42:59;100591.66;;;25.61;nan
23321;BME280;33376;51.306;4.752;2022-08-19T12:45:25;100555.03;;;26.16;nan
23321;BME280;33376;51.306;4.752;2022-08-19T12:47:50;100561.47;;;26.29;nan
23321;BME280;33376;51.306;4.752;2022-08-19T12:50:18;100556.31;;;26.55;nan
23321;BME280;33376;51.306;4.752;2022-08-19T12:52:43;100595.81;;;26.16;nan
23321;BME280;33376;51.306;4.752;2022-08-19T12:55:08;100573.38;;;26.28;nan
23321;BME280;33376;51.306;4.752;2022-08-19T12:57:35;100590.47;;;25.64;nan
23321;BME280;33376;51.306;4.752;2022-08-19T13:00:08;100547.06;;;26.00;nan
23321;BME280;33376;51.306;4.752;2022-08-19T13:02:41;100553.06;;;25.95;nan
23321;BME280;33376;51.306;4.752;2022-08-19T13:05:09;100545.50;;;25.90;nan
23321;BME280;33376;51.306;4.752;2022-08-19T13:07:36;100555.22;;;26.14;nan
23321;BME280;33376;51.306;4.752;2022-08-19T13:10:02;100549.06;;;26.41;nan
23321;BME280;33376;51.306;4.752;2022-08-19T13:12:27;100550.66;;;26.57;nan
23321;BME280;33376;51.306;4.752;2022-08-19T13:14:53;100569.50;;;26.02;nan
23321;BME280;33376;51.306;4.752;2022-08-19T13:17:20;100571.50;;;26.00;nan
23321;BME280;33376;51.306;4.752;2022-08-19T13:19:45;100566.28;;;26.48;nan
23321;BME280;33376;51.306;4.752;2022-08-19T13:22:10;100595.44;;;26.54;nan
23321;BME280;33376;51.306;4.752;2022-08-19T13:24:37;100626.41;;;26.53;nan
23321;BME280;33376;51.306;4.752;2022-08-19T13:27:02;100633.69;;;26.53;nan
23321;BME280;33376;51.306;4.752;2022-08-19T13:29:27;100608.56;;;26.65;nan
23321;BME280;33376;51.306;4.752;2022-08-19T13:32:12;100601.19;;;26.45;nan